createdAt,value
2017-12-03T00:00:14.996Z,0.33
2017-12-03T00:02:43.908Z,0.00
2017-12-03T00:05:12.740Z,0.00
2017-12-03T00:07:41.592Z,0.00
2017-12-03T00:10:10.440Z,0.00
2017-12-03T00:12:39.312Z,1.17
2017-12-03T00:15:08.174Z,0.10
2017-12-03T00:17:37.196Z,0.00
2017-12-03T00:20:06.394Z,0.00
2017-12-03T00:22:35.468Z,0.00
2017-12-03T00:25:04.756Z,0.00
2017-12-03T00:27:33.582Z,0.00
2017-12-03T00:30:02.452Z,0.00
2017-12-03T00:32:31.328Z,0.00
2017-12-03T00:35:00.171Z,0.00
2017-12-03T00:37:30.160Z,0.00
2017-12-03T00:39:59.010Z,0.00
2017-12-03T00:42:27.848Z,0.00
2017-12-03T00:44:56.728Z,0.00
2017-12-03T00:47:25.612Z,0.00
2017-12-03T00:49:54.450Z,0.00
2017-12-03T00:52:23.576Z,0.00
2017-12-03T00:54:52.416Z,0.17
2017-12-03T00:57:21.308Z,0.00
2017-12-03T00:59:51.880Z,0.00
2017-12-03T01:02:20.724Z,0.00
2017-12-03T01:04:49.557Z,0.00
2017-12-03T01:07:18.510Z,0.10
2017-12-03T01:09:47.354Z,0.00
2017-12-03T01:12:16.414Z,0.10
2017-12-03T01:14:45.613Z,0.00
2017-12-03T01:17:14.508Z,0.00
2017-12-03T01:19:43.420Z,0.07
2017-12-03T01:22:12.298Z,0.00
2017-12-03T01:24:41.205Z,0.13
2017-12-03T01:27:10.095Z,0.00
2017-12-03T01:29:38.945Z,0.00
2017-12-03T01:32:07.812Z,0.10
2017-12-03T01:34:37.000Z,0.17
2017-12-03T01:37:05.850Z,0.30
2017-12-03T01:39:34.738Z,0.00
2017-12-03T01:42:03.584Z,1.67
2017-12-03T01:44:32.480Z,0.00
2017-12-03T01:47:01.356Z,0.00
2017-12-03T01:49:30.181Z,0.00
2017-12-03T01:51:59.062Z,0.13
2017-12-03T01:54:27.894Z,0.00
2017-12-03T01:56:56.735Z,0.20
2017-12-03T01:59:25.685Z,0.00
2017-12-03T02:01:54.515Z,0.00
2017-12-03T02:04:23.364Z,0.10
2017-12-03T02:06:52.210Z,0.77
2017-12-03T02:09:21.088Z,0.00
2017-12-03T02:11:49.983Z,3.40
2017-12-03T02:14:18.840Z,0.00
2017-12-03T02:16:47.708Z,0.10
2017-12-03T02:19:16.540Z,0.03
2017-12-03T02:21:45.422Z,0.10
2017-12-03T02:24:14.260Z,2.30
2017-12-03T02:26:43.811Z,0.57
2017-12-03T02:29:12.688Z,1.70
2017-12-03T02:31:41.514Z,0.00
2017-12-03T02:34:10.360Z,0.07
2017-12-03T02:36:39.688Z,0.70
2017-12-03T02:39:09.157Z,0.00
2017-12-03T02:41:38.106Z,0.00
2017-12-03T02:44:07.340Z,0.00
2017-12-03T02:46:36.204Z,2.00
2017-12-03T02:49:05.102Z,0.00
2017-12-03T02:51:33.958Z,0.00
2017-12-03T02:54:02.805Z,0.00
2017-12-03T02:56:31.652Z,0.43
2017-12-03T02:59:00.519Z,0.97
2017-12-03T03:01:29.400Z,0.20
2017-12-03T03:03:58.239Z,0.40
2017-12-03T03:06:27.112Z,0.00
2017-12-03T03:08:55.943Z,1.40
2017-12-03T03:11:24.802Z,0.00
2017-12-03T03:13:53.660Z,0.27
2017-12-03T03:16:22.486Z,0.00
2017-12-03T03:18:51.468Z,0.00
2017-12-03T03:21:20.360Z,1.70
2017-12-03T03:23:49.228Z,0.00
2017-12-03T03:26:18.071Z,0.63
2017-12-03T03:28:46.984Z,1.20
2017-12-03T03:31:15.815Z,0.73
2017-12-03T03:33:44.649Z,0.00
2017-12-03T03:36:13.762Z,0.00
2017-12-03T03:38:42.588Z,0.10
2017-12-03T03:41:12.063Z,0.00
2017-12-03T03:43:40.920Z,0.00
2017-12-03T03:46:09.783Z,0.00
2017-12-03T03:48:38.610Z,1.40
2017-12-03T03:51:07.474Z,0.00
2017-12-03T03:53:36.306Z,0.00
2017-12-03T03:56:05.801Z,0.40
2017-12-03T03:58:34.664Z,1.90
2017-12-03T04:01:04.132Z,0.93
2017-12-03T04:03:32.971Z,0.00
2017-12-03T04:06:01.829Z,0.10
2017-12-03T04:08:31.414Z,0.20
2017-12-03T04:11:00.262Z,0.00
2017-12-03T04:13:29.164Z,0.00
2017-12-03T04:15:57.992Z,0.37
2017-12-03T04:18:26.824Z,0.10
2017-12-03T04:20:55.689Z,0.13
2017-12-03T04:23:24.521Z,1.83
2017-12-03T04:25:53.358Z,0.00
2017-12-03T04:28:22.234Z,0.60
2017-12-03T04:30:51.111Z,0.00
2017-12-03T04:33:19.940Z,0.00
2017-12-03T04:35:48.800Z,2.23
2017-12-03T04:38:17.943Z,0.10
2017-12-03T04:40:47.441Z,0.00
2017-12-03T04:43:16.902Z,0.17
2017-12-03T04:45:46.528Z,2.57
2017-12-03T04:48:15.426Z,0.67
2017-12-03T04:50:44.916Z,1.27
2017-12-03T04:53:13.818Z,1.60
2017-12-03T04:55:42.650Z,0.00
2017-12-03T04:58:11.506Z,1.20
2017-12-03T05:00:41.102Z,0.83
2017-12-03T05:03:09.939Z,0.53
2017-12-03T05:05:38.814Z,2.57
2017-12-03T05:08:07.692Z,0.00
2017-12-03T05:10:36.518Z,0.00
2017-12-03T05:13:05.422Z,0.40
2017-12-03T05:15:34.266Z,1.10
2017-12-03T05:18:03.144Z,0.00
2017-12-03T05:20:32.004Z,0.00
2017-12-03T05:23:00.836Z,0.23
2017-12-03T05:25:29.667Z,0.17
2017-12-03T05:27:58.531Z,29.80
2017-12-03T05:30:27.377Z,26.83
2017-12-03T05:32:56.235Z,28.20
2017-12-03T05:35:25.111Z,26.77
2017-12-03T05:37:53.954Z,29.23
2017-12-03T05:40:23.440Z,27.20
2017-12-03T05:42:52.360Z,27.17
2017-12-03T05:45:21.201Z,29.30
2017-12-03T05:47:50.078Z,27.47
2017-12-03T05:50:18.975Z,26.47
2017-12-03T05:52:47.839Z,26.43
2017-12-03T05:55:16.745Z,27.03
2017-12-03T05:57:45.668Z,27.20
2017-12-03T06:00:15.461Z,25.73
2017-12-03T06:02:45.285Z,26.67
2017-12-03T06:05:14.161Z,27.70
2017-12-03T06:07:43.020Z,28.37
2017-12-03T06:10:11.868Z,26.63
2017-12-03T06:12:40.709Z,25.63
2017-12-03T06:15:09.554Z,28.27
2017-12-03T06:17:38.410Z,26.10
2017-12-03T06:20:07.262Z,25.90
2017-12-03T06:22:36.148Z,22.07
2017-12-03T06:25:05.047Z,24.63
2017-12-03T06:27:34.003Z,24.10
2017-12-03T06:30:02.865Z,24.80
2017-12-03T06:32:31.733Z,24.83
2017-12-03T06:35:00.561Z,24.13
2017-12-03T06:37:29.484Z,24.73
2017-12-03T06:39:58.651Z,24.10
2017-12-03T06:42:27.495Z,23.53
2017-12-03T06:44:56.371Z,24.47
2017-12-03T06:47:26.200Z,25.80
2017-12-03T06:49:55.064Z,24.60
2017-12-03T06:52:23.929Z,25.10
2017-12-03T06:54:52.807Z,25.90
2017-12-03T06:57:21.645Z,24.40
2017-12-03T06:59:50.484Z,24.83
2017-12-03T07:02:19.417Z,24.30
2017-12-03T07:04:48.855Z,25.30
2017-12-03T07:07:18.279Z,25.23
2017-12-03T07:09:47.171Z,23.97
2017-12-03T07:12:16.029Z,22.30
2017-12-03T07:14:44.871Z,23.37
2017-12-03T07:17:13.735Z,21.50
2017-12-03T07:19:42.586Z,17.00
2017-12-03T07:22:12.213Z,24.60
2017-12-03T07:24:41.089Z,23.13
2017-12-03T07:27:10.072Z,23.67
2017-12-03T07:29:38.920Z,23.80
2017-12-03T07:32:07.813Z,23.97
2017-12-03T07:34:36.665Z,21.77
2017-12-03T07:37:05.550Z,23.03
2017-12-03T07:39:34.861Z,22.93
2017-12-03T07:42:04.485Z,23.73
2017-12-03T07:44:33.477Z,21.50
2017-12-03T07:47:02.331Z,24.37
2017-12-03T07:49:31.274Z,23.37
2017-12-03T07:52:00.145Z,25.87
2017-12-03T07:54:29.015Z,24.47
2017-12-03T07:56:57.863Z,24.03
2017-12-03T07:59:26.712Z,24.43
2017-12-03T08:01:55.581Z,25.97
2017-12-03T08:04:24.421Z,26.57
2017-12-03T08:06:53.289Z,23.43
2017-12-03T08:09:22.551Z,26.23
2017-12-03T08:11:51.478Z,25.47
2017-12-03T08:14:22.538Z,26.73
2017-12-03T08:16:51.477Z,26.10
2017-12-03T08:19:21.285Z,25.40
2017-12-03T08:21:50.995Z,25.33
2017-12-03T08:24:19.897Z,24.77
2017-12-03T08:26:48.839Z,20.27
2017-12-03T08:29:18.104Z,25.70
2017-12-03T08:31:46.963Z,27.67
2017-12-03T08:34:15.843Z,26.67
2017-12-03T08:36:45.474Z,27.13
2017-12-03T08:39:14.343Z,26.63
2017-12-03T08:41:43.205Z,27.27
2017-12-03T08:44:13.377Z,27.13
2017-12-03T08:46:42.689Z,27.30
2017-12-03T08:49:12.207Z,28.67
2017-12-03T08:51:41.132Z,26.00
2017-12-03T08:54:10.235Z,27.37
2017-12-03T08:56:39.327Z,28.20
2017-12-03T08:59:08.329Z,27.20
2017-12-03T09:01:37.189Z,28.57
2017-12-03T09:04:06.211Z,27.80
2017-12-03T09:06:35.399Z,26.93
2017-12-03T09:09:04.252Z,29.37
2017-12-03T09:11:33.091Z,28.23
2017-12-03T09:14:03.521Z,28.70
2017-12-03T09:16:32.472Z,28.73
2017-12-03T09:19:02.400Z,23.77
2017-12-03T09:21:31.231Z,29.77
2017-12-03T09:24:00.084Z,29.17
2017-12-03T09:26:28.949Z,28.57
2017-12-03T09:28:57.955Z,31.67
2017-12-03T09:31:26.805Z,31.90
2017-12-03T09:33:55.669Z,27.87
2017-12-03T09:36:24.529Z,29.07
2017-12-03T09:38:53.373Z,25.83
2017-12-03T09:41:22.630Z,26.70
2017-12-03T09:43:51.522Z,30.20
2017-12-03T09:46:20.507Z,30.53
2017-12-03T09:48:49.363Z,30.97
2017-12-03T09:51:18.215Z,27.00
2017-12-03T09:53:47.350Z,30.53
2017-12-03T09:56:16.251Z,27.07
2017-12-03T09:58:45.133Z,23.33
2017-12-03T10:01:13.983Z,25.30
2017-12-03T10:03:43.217Z,25.30
2017-12-03T10:06:12.054Z,25.97
2017-12-03T10:08:40.909Z,26.30
2017-12-03T10:11:09.797Z,29.87
2017-12-03T10:13:38.650Z,31.33
2017-12-03T10:16:07.517Z,28.70
2017-12-03T10:18:36.383Z,28.37
2017-12-03T10:21:05.557Z,48.27
2017-12-03T10:23:34.395Z,27.97
2017-12-03T10:26:03.265Z,29.17
2017-12-03T10:28:32.121Z,31.30
2017-12-03T10:31:00.972Z,26.67
2017-12-03T10:33:29.865Z,27.67
2017-12-03T10:35:58.711Z,27.40
2017-12-03T10:38:27.576Z,25.60
2017-12-03T10:40:57.122Z,27.40
2017-12-03T10:43:25.960Z,32.23
2017-12-03T10:45:54.911Z,28.07
2017-12-03T10:48:23.853Z,29.17
2017-12-03T10:50:52.713Z,27.40
2017-12-03T10:53:21.579Z,29.10
2017-12-03T10:55:50.464Z,28.50
2017-12-03T10:58:19.665Z,30.27
2017-12-03T11:00:48.511Z,26.73
2017-12-03T11:03:17.369Z,26.10
2017-12-03T11:05:46.276Z,29.67
2017-12-03T11:08:15.139Z,23.70
2017-12-03T11:10:45.053Z,26.27
2017-12-03T11:13:13.913Z,22.13
2017-12-03T11:15:43.115Z,23.87
2017-12-03T11:18:11.971Z,24.90
2017-12-03T11:20:41.734Z,25.47
2017-12-03T11:23:10.583Z,28.23
2017-12-03T11:25:40.177Z,21.83
2017-12-03T11:28:09.012Z,19.37
2017-12-03T11:30:37.870Z,28.07
2017-12-03T11:33:06.741Z,27.40
2017-12-03T11:35:35.609Z,25.90
2017-12-03T11:38:04.453Z,22.77
2017-12-03T11:40:33.314Z,28.00
2017-12-03T11:43:02.191Z,23.90
2017-12-03T11:45:31.041Z,24.60
2017-12-03T11:47:59.910Z,31.33
2017-12-03T11:50:28.755Z,22.97
2017-12-03T11:52:57.595Z,24.37
2017-12-03T11:55:26.887Z,22.13
2017-12-03T11:57:55.739Z,25.03
2017-12-03T12:00:24.599Z,25.70
2017-12-03T12:02:53.519Z,22.87
2017-12-03T12:05:22.907Z,24.73
2017-12-03T12:07:51.749Z,24.33
2017-12-03T12:10:20.635Z,26.07
2017-12-03T12:12:49.543Z,33.57
2017-12-03T12:15:18.444Z,23.97
2017-12-03T12:17:47.305Z,22.13
2017-12-03T12:20:16.184Z,25.07
2017-12-03T12:22:45.037Z,22.17
2017-12-03T12:25:13.899Z,21.63
2017-12-03T12:27:42.750Z,23.77
2017-12-03T12:30:11.603Z,25.10
2017-12-03T12:32:40.476Z,22.57
2017-12-03T12:35:09.336Z,21.93
2017-12-03T12:37:38.247Z,21.80
2017-12-03T12:40:08.718Z,22.20
2017-12-03T12:42:37.585Z,20.90
2017-12-03T12:45:06.426Z,22.07
2017-12-03T12:47:35.287Z,21.83
2017-12-03T12:50:04.221Z,22.03
2017-12-03T12:52:33.075Z,23.17
2017-12-03T12:55:01.929Z,23.43
2017-12-03T12:57:30.784Z,20.07
2017-12-03T13:00:00.407Z,22.60
2017-12-03T13:02:29.319Z,23.30
2017-12-03T13:04:58.187Z,24.43
2017-12-03T13:07:27.019Z,24.87
2017-12-03T13:09:55.913Z,24.87
2017-12-03T13:12:24.759Z,25.50
2017-12-03T13:14:53.604Z,27.30
2017-12-03T13:17:22.477Z,23.83
2017-12-03T13:19:51.307Z,24.77
2017-12-03T13:22:20.161Z,24.37
2017-12-03T13:24:49.075Z,24.03
2017-12-03T13:27:17.935Z,25.37
2017-12-03T13:29:46.785Z,23.67
2017-12-03T13:32:15.703Z,25.50
2017-12-03T13:34:44.551Z,26.70
2017-12-03T13:37:13.431Z,27.13
2017-12-03T13:39:42.303Z,29.70
2017-12-03T13:42:11.197Z,29.17
2017-12-03T13:44:40.043Z,30.83
2017-12-03T13:47:09.564Z,29.90
2017-12-03T13:49:38.421Z,30.30
2017-12-03T13:52:07.283Z,30.33
2017-12-03T13:54:36.167Z,30.70
2017-12-03T13:57:05.018Z,31.50
2017-12-03T13:59:33.878Z,30.07
2017-12-03T14:02:02.853Z,29.40
2017-12-03T14:04:31.709Z,30.53
2017-12-03T14:07:01.108Z,31.20
2017-12-03T14:09:29.991Z,33.20
2017-12-03T14:11:58.854Z,29.73
2017-12-03T14:14:27.711Z,30.47
2017-12-03T14:16:56.596Z,33.37
2017-12-03T14:19:25.438Z,31.83
2017-12-03T14:21:54.316Z,27.80
2017-12-03T14:24:23.209Z,31.93
2017-12-03T14:26:52.781Z,32.13
2017-12-03T14:29:21.670Z,32.13
2017-12-03T14:31:50.561Z,32.20
2017-12-03T14:34:19.402Z,32.47
2017-12-03T14:36:48.261Z,29.43
2017-12-03T14:39:17.133Z,31.43
2017-12-03T14:41:45.985Z,29.97
2017-12-03T14:44:14.836Z,32.97
2017-12-03T14:46:43.748Z,33.70
2017-12-03T14:49:12.595Z,32.53
2017-12-03T14:51:42.319Z,32.83
2017-12-03T14:54:11.235Z,31.97
2017-12-03T14:56:40.851Z,33.43
2017-12-03T14:59:09.709Z,33.33
2017-12-03T15:01:38.639Z,32.90
2017-12-03T15:04:07.487Z,35.80
2017-12-03T15:06:36.327Z,31.57
2017-12-03T15:09:05.223Z,33.80
2017-12-03T15:11:34.077Z,34.70
2017-12-03T15:14:02.945Z,32.23
2017-12-03T15:16:31.835Z,33.87
2017-12-03T15:19:00.710Z,35.27
2017-12-03T15:21:29.588Z,32.07
2017-12-03T15:23:58.459Z,37.60
2017-12-03T15:26:27.338Z,39.40
2017-12-03T15:28:56.231Z,45.50
2017-12-03T15:31:25.110Z,32.20
2017-12-03T15:33:53.982Z,36.77
2017-12-03T15:36:22.841Z,35.00
2017-12-03T15:38:52.275Z,32.07
2017-12-03T15:41:21.153Z,35.20
2017-12-03T15:43:50.003Z,33.13
2017-12-03T15:46:18.894Z,42.90
2017-12-03T15:48:47.741Z,32.43
2017-12-03T15:51:16.629Z,38.93
2017-12-03T15:53:45.493Z,35.17
2017-12-03T15:56:14.343Z,44.47
2017-12-03T15:58:43.212Z,34.70
2017-12-03T16:01:12.824Z,36.10
2017-12-03T16:03:41.692Z,35.57
2017-12-03T16:06:11.168Z,35.77
2017-12-03T16:08:40.052Z,36.47
2017-12-03T16:11:08.904Z,33.40
2017-12-03T16:13:37.810Z,35.27
2017-12-03T16:16:06.689Z,36.07
2017-12-03T16:18:35.622Z,35.70
2017-12-03T16:21:05.076Z,30.73
2017-12-03T16:23:34.082Z,35.80
2017-12-03T16:26:02.984Z,37.40
2017-12-03T16:28:31.828Z,36.03
2017-12-03T16:31:01.270Z,36.03
2017-12-03T16:33:30.138Z,36.43
2017-12-03T16:35:59.004Z,37.47
2017-12-03T16:38:27.876Z,38.90
2017-12-03T16:40:57.258Z,35.13
2017-12-03T16:43:26.115Z,35.47
2017-12-03T16:45:54.996Z,36.77
2017-12-03T16:48:25.164Z,38.27
2017-12-03T16:50:54.018Z,36.57
2017-12-03T16:53:24.038Z,37.10
2017-12-03T16:55:52.887Z,38.10
2017-12-03T16:58:21.753Z,36.60
2017-12-03T17:00:50.678Z,37.60
2017-12-03T17:03:19.752Z,40.37
2017-12-03T17:05:48.640Z,36.13
2017-12-03T17:08:17.491Z,37.73
2017-12-03T17:10:46.361Z,35.70
2017-12-03T17:13:15.194Z,34.00
2017-12-03T17:15:44.061Z,33.70
2017-12-03T17:18:12.921Z,34.80
2017-12-03T17:20:41.750Z,37.87
2017-12-03T17:23:10.636Z,36.10
2017-12-03T17:25:39.740Z,44.17
2017-12-03T17:28:08.680Z,35.80
2017-12-03T17:30:37.612Z,40.47
2017-12-03T17:33:07.160Z,36.57
2017-12-03T17:35:36.124Z,36.77
2017-12-03T17:38:05.616Z,39.00
2017-12-03T17:40:34.739Z,40.03
2017-12-03T17:43:04.563Z,36.23
2017-12-03T17:45:33.451Z,34.80
2017-12-03T17:48:02.336Z,46.20
2017-12-03T17:50:31.196Z,36.90
2017-12-03T17:53:00.086Z,36.90
2017-12-03T17:55:28.958Z,35.00
2017-12-03T17:57:58.626Z,36.67
2017-12-03T18:00:27.488Z,40.60
2017-12-03T18:02:56.905Z,35.47
2017-12-03T18:05:25.756Z,34.83
2017-12-03T18:07:54.667Z,33.17
2017-12-03T18:10:23.544Z,33.20
2017-12-03T18:12:52.410Z,33.73
2017-12-03T18:15:21.285Z,36.47
2017-12-03T18:17:50.148Z,34.37
2017-12-03T18:20:19.342Z,37.33
2017-12-03T18:22:49.387Z,37.17
2017-12-03T18:25:18.622Z,39.70
2017-12-03T18:27:47.471Z,37.70
2017-12-03T18:30:17.420Z,34.47
2017-12-03T18:32:46.284Z,34.97
2017-12-03T18:35:15.327Z,40.30
2017-12-03T18:37:45.099Z,39.43
2017-12-03T18:40:14.684Z,46.17
2017-12-03T18:42:43.617Z,47.37
2017-12-03T18:45:12.488Z,42.27
2017-12-03T18:47:42.338Z,40.60
2017-12-03T18:50:11.210Z,39.10
2017-12-03T18:52:40.100Z,41.27
2017-12-03T18:55:08.962Z,34.93
2017-12-03T18:57:37.824Z,40.10
2017-12-03T19:00:06.716Z,37.27
2017-12-03T19:02:36.447Z,39.17
2017-12-03T19:05:06.269Z,37.40
2017-12-03T19:07:35.136Z,39.30
2017-12-03T19:10:04.035Z,39.53
2017-12-03T19:12:32.880Z,40.73
2017-12-03T19:15:01.778Z,41.90
2017-12-03T19:17:30.655Z,40.83
2017-12-03T19:20:00.404Z,40.83
2017-12-03T19:22:29.322Z,39.47
2017-12-03T19:24:58.185Z,42.13
2017-12-03T19:27:28.287Z,40.30
2017-12-03T19:29:57.181Z,40.70
2017-12-03T19:32:26.047Z,43.40
2017-12-03T19:34:54.900Z,43.70
2017-12-03T19:37:24.705Z,42.97
2017-12-03T19:39:53.685Z,44.00
2017-12-03T19:42:22.553Z,48.90
2017-12-03T19:44:51.413Z,43.20
2017-12-03T19:47:21.113Z,40.03
2017-12-03T19:49:50.000Z,45.77
2017-12-03T19:52:18.885Z,49.83
2017-12-03T19:54:48.280Z,53.13
2017-12-03T19:57:17.339Z,48.50
2017-12-03T19:59:46.835Z,53.30
2017-12-03T20:02:15.826Z,53.83
2017-12-03T20:04:44.753Z,54.90
2017-12-03T20:07:13.708Z,51.17
2017-12-03T20:09:42.561Z,47.57
2017-12-03T20:12:12.287Z,47.77
2017-12-03T20:14:41.265Z,51.80
2017-12-03T20:17:11.367Z,54.13
2017-12-03T20:19:40.253Z,49.33
2017-12-03T20:22:09.128Z,44.90
2017-12-03T20:24:38.133Z,45.83
2017-12-03T20:27:07.951Z,45.37
2017-12-03T20:29:36.840Z,46.97
2017-12-03T20:32:05.743Z,40.17
2017-12-03T20:34:34.699Z,44.90
2017-12-03T20:37:04.376Z,39.17
2017-12-03T20:39:33.222Z,40.13
2017-12-03T20:42:02.099Z,39.50
2017-12-03T20:44:30.987Z,41.27
2017-12-03T20:46:59.831Z,42.40
2017-12-03T20:49:29.467Z,41.83
2017-12-03T20:51:58.332Z,42.10
2017-12-03T20:54:28.771Z,44.03
2017-12-03T20:56:58.032Z,44.97
2017-12-03T20:59:26.883Z,45.70
2017-12-03T21:01:55.808Z,45.17
2017-12-03T21:04:25.175Z,42.87
2017-12-03T21:06:54.073Z,41.73
2017-12-03T21:09:22.939Z,45.80
2017-12-03T21:11:51.927Z,45.77
2017-12-03T21:14:20.879Z,41.87
2017-12-03T21:16:49.718Z,50.77
2017-12-03T21:19:18.614Z,43.40
2017-12-03T21:21:47.471Z,46.27
2017-12-03T21:24:16.565Z,47.40
2017-12-03T21:26:45.468Z,75.70
2017-12-03T21:29:14.312Z,41.93
2017-12-03T21:31:43.552Z,46.57
2017-12-03T21:34:12.487Z,48.37
2017-12-03T21:36:41.399Z,47.07
2017-12-03T21:39:10.253Z,47.03
2017-12-03T21:41:39.155Z,42.50
2017-12-03T21:44:08.342Z,44.80
2017-12-03T21:46:37.729Z,45.10
2017-12-03T21:49:07.501Z,45.53
2017-12-03T21:51:37.153Z,43.87
2017-12-03T21:54:06.051Z,44.33
2017-12-03T21:56:34.979Z,46.47
2017-12-03T21:59:03.917Z,45.50
2017-12-03T22:01:32.785Z,48.67
2017-12-03T22:04:01.661Z,47.20
2017-12-03T22:06:30.551Z,47.13
2017-12-03T22:08:59.451Z,49.47
2017-12-03T22:11:29.593Z,48.17
2017-12-03T22:13:58.771Z,51.10
2017-12-03T22:16:28.495Z,56.83
2017-12-03T22:18:57.333Z,50.83
2017-12-03T22:21:26.371Z,51.53
2017-12-03T22:23:55.233Z,60.13
2017-12-03T22:26:24.100Z,54.73
2017-12-03T22:28:52.984Z,48.97
2017-12-03T22:31:21.847Z,46.60
2017-12-03T22:33:51.165Z,52.10
2017-12-03T22:36:20.001Z,50.60
2017-12-03T22:38:48.875Z,55.93
2017-12-03T22:41:17.723Z,50.53
2017-12-03T22:43:46.570Z,48.33
2017-12-03T22:46:16.104Z,52.80
2017-12-03T22:48:45.981Z,48.97
2017-12-03T22:51:14.828Z,48.07
2017-12-03T22:53:43.723Z,49.67
2017-12-03T22:56:12.561Z,48.93
2017-12-03T22:58:41.455Z,47.93
2017-12-03T23:01:10.905Z,48.57
2017-12-03T23:03:39.744Z,49.67
2017-12-03T23:06:08.598Z,46.43
2017-12-03T23:08:37.470Z,48.83
2017-12-03T23:11:06.309Z,47.17
2017-12-03T23:13:35.826Z,49.70
2017-12-03T23:16:04.758Z,50.53
2017-12-03T23:18:33.636Z,47.30
2017-12-03T23:21:02.485Z,47.03
2017-12-03T23:23:31.355Z,44.97
2017-12-03T23:26:00.202Z,45.67
2017-12-03T23:28:29.040Z,48.80
2017-12-03T23:30:57.907Z,51.87
2017-12-03T23:33:27.595Z,49.67
2017-12-03T23:35:56.466Z,43.57
2017-12-03T23:38:25.340Z,47.77
2017-12-03T23:40:54.191Z,43.37
2017-12-03T23:43:23.037Z,45.13
2017-12-03T23:45:51.888Z,43.37
2017-12-03T23:48:20.737Z,44.70
2017-12-03T23:50:49.589Z,50.67
2017-12-03T23:53:18.473Z,45.10
2017-12-03T23:55:48.478Z,44.57
2017-12-03T23:58:17.366Z,45.17
